Terminal Aerodrome Forecast
Issued by NWS Paducah, KY

Home | Current Version | Previous Version | Text Only | Print | Product List | Glossary On
Versions: 1 2 3 4 5 6 7 8 9 10 11 12 13 14 15 16 17
000
FTUS43 KPAH 221700
TAFEVV
TAF
KEVV 221720Z 2218/2318 00000KT P6SM SKC
      TEMPO 2219/2221 24005KT FEW035
     FM222300 25003KT P6SM SKC
      TEMPO 2305/2308 5SM BR
     FM230800 26002KT P6SM SCT150
     FM231400 33006KT P6SM -SHRA BKN035 OVC070=

USA.gov is the U.S. government's official web portal to all federal, state and local government web resources and services.